createdAt,value
2023-02-25T00:00:54.010Z,100.00
2023-02-25T00:03:22.944Z,100.00
2023-02-25T00:05:49.751Z,100.00
2023-02-25T00:08:19.992Z,100.00
2023-02-25T00:10:56.630Z,99.55
2023-02-25T00:13:22.979Z,99.60
2023-02-25T00:15:59.008Z,98.98
2023-02-25T00:18:26.635Z,97.71
2023-02-25T00:21:05.086Z,97.65
2023-02-25T00:23:34.019Z,96.91
2023-02-25T00:26:08.692Z,96.60
2023-02-25T00:28:41.369Z,96.19
2023-02-25T00:31:10.161Z,96.17
2023-02-25T00:33:44.278Z,96.20
2023-02-25T00:36:30.978Z,96.12
2023-02-25T00:38:59.933Z,96.05
2023-02-25T00:41:33.578Z,95.46
2023-02-25T00:44:01.832Z,95.46
2023-02-25T00:46:34.293Z,95.13
2023-02-25T00:49:01.789Z,94.11
2023-02-25T00:51:33.746Z,94.25
2023-02-25T00:54:00.221Z,94.42
2023-02-25T00:56:29.082Z,94.24
2023-02-25T00:58:57.556Z,93.68
2023-02-25T01:01:25.384Z,93.78
2023-02-25T01:06:49.645Z,94.80
2023-02-25T01:09:19.155Z,96.07
2023-02-25T01:11:49.688Z,96.47
2023-02-25T01:14:33.014Z,97.00
2023-02-25T01:17:11.230Z,97.25
2023-02-25T01:19:37.592Z,97.32
2023-02-25T01:22:17.467Z,97.73
2023-02-25T01:24:48.985Z,98.86
2023-02-25T01:27:18.089Z,99.35
2023-02-25T01:29:47.676Z,99.59
2023-02-25T01:32:15.409Z,100.00
2023-02-25T01:34:45.417Z,100.00
2023-02-25T01:37:12.128Z,100.00
2023-02-25T01:39:45.697Z,100.00
2023-02-25T01:42:16.020Z,100.00
2023-02-25T01:45:13.463Z,100.00
2023-02-25T01:47:52.215Z,100.00
2023-02-25T01:50:32.424Z,100.00
2023-02-25T01:53:13.935Z,100.00
2023-02-25T01:55:45.814Z,100.00
2023-02-25T01:58:17.478Z,100.00
2023-02-25T02:00:49.622Z,100.00
2023-02-25T02:03:16.260Z,99.21
2023-02-25T02:05:56.733Z,99.33
2023-02-25T02:08:24.393Z,99.65
2023-02-25T02:10:53.890Z,99.90
2023-02-25T02:13:24.318Z,100.00
2023-02-25T02:16:23.358Z,100.00
2023-02-25T02:18:58.932Z,100.00
2023-02-25T02:21:40.843Z,100.00
2023-02-25T02:24:31.869Z,100.00
2023-02-25T02:27:03.537Z,100.00
2023-02-25T02:29:58.433Z,100.00
2023-02-25T02:33:05.074Z,100.00
2023-02-25T02:36:15.519Z,100.00
2023-02-25T02:39:03.293Z,100.00
2023-02-25T02:41:45.077Z,100.00
2023-02-25T02:44:27.066Z,100.00
2023-02-25T02:47:02.192Z,100.00
2023-02-25T02:49:39.438Z,100.00
2023-02-25T02:52:15.972Z,100.00
2023-02-25T02:54:47.297Z,100.00
2023-02-25T02:57:18.281Z,100.00
2023-02-25T02:59:56.405Z,100.00
2023-02-25T03:02:41.638Z,100.00
2023-02-25T03:05:12.633Z,100.00
2023-02-25T03:07:48.939Z,100.00
2023-02-25T03:10:22.517Z,100.00
2023-02-25T03:12:52.734Z,100.00
2023-02-25T03:15:19.131Z,100.00
2023-02-25T03:17:59.159Z,100.00
2023-02-25T03:20:30.533Z,100.00
2023-02-25T03:23:00.379Z,100.00
2023-02-25T03:25:33.142Z,100.00
2023-02-25T03:28:24.345Z,100.00
2023-02-25T03:31:01.054Z,100.00
2023-02-25T03:33:52.233Z,100.00
2023-02-25T03:36:23.974Z,100.00
2023-02-25T03:38:58.169Z,100.00
2023-02-25T03:41:35.617Z,100.00
2023-02-25T03:44:07.569Z,100.00
2023-02-25T03:46:35.290Z,100.00
2023-02-25T03:49:05.322Z,99.77
2023-02-25T03:51:35.749Z,99.11
2023-02-25T03:54:04.280Z,98.67
2023-02-25T03:56:33.235Z,97.88
2023-02-25T03:58:59.628Z,97.37
2023-02-25T04:01:31.615Z,97.02
2023-02-25T04:03:58.036Z,96.02
2023-02-25T04:06:25.537Z,95.27
2023-02-25T04:09:01.888Z,95.54
2023-02-25T04:11:28.568Z,95.26
2023-02-25T04:13:58.159Z,94.77
2023-02-25T04:16:24.907Z,94.82
2023-02-25T04:18:51.361Z,94.48
2023-02-25T04:21:33.001Z,94.81
2023-02-25T04:24:03.122Z,94.73
2023-02-25T04:26:35.986Z,94.79
2023-02-25T04:29:06.549Z,94.95
2023-02-25T04:31:33.088Z,94.85
2023-02-25T04:33:59.537Z,95.25
2023-02-25T04:36:35.877Z,93.77
2023-02-25T04:39:07.798Z,93.24
2023-02-25T04:41:39.319Z,92.35
2023-02-25T04:44:14.306Z,92.55
2023-02-25T04:46:42.818Z,91.15
2023-02-25T04:49:14.256Z,90.96
2023-02-25T04:51:43.686Z,91.00
2023-02-25T04:54:10.074Z,91.22
2023-02-25T04:56:39.940Z,90.79
2023-02-25T04:59:11.307Z,90.51
2023-02-25T05:01:43.442Z,90.72
2023-02-25T05:04:09.918Z,90.54
2023-02-25T05:06:36.296Z,90.48
2023-02-25T05:09:10.931Z,90.56
2023-02-25T05:11:37.343Z,90.44
2023-02-25T05:14:04.833Z,90.94
2023-02-25T05:16:34.857Z,91.52
2023-02-25T05:19:01.256Z,91.05
2023-02-25T05:21:31.602Z,90.52
2023-02-25T05:24:00.895Z,90.78
2023-02-25T05:26:31.316Z,90.88
2023-02-25T05:28:57.845Z,91.34
2023-02-25T05:31:25.972Z,91.40
2023-02-25T05:33:54.540Z,91.58
2023-02-25T05:36:21.817Z,91.69
2023-02-25T05:38:48.541Z,92.39
2023-02-25T05:41:15.475Z,92.43
2023-02-25T05:43:45.893Z,92.54
2023-02-25T05:46:13.869Z,92.81
2023-02-25T05:48:53.474Z,92.91
2023-02-25T05:54:06.352Z,92.89
2023-02-25T05:56:33.056Z,92.80
2023-02-25T05:59:03.342Z,92.88
2023-02-25T06:01:34.028Z,93.08
2023-02-25T06:04:03.301Z,92.58
2023-02-25T06:06:46.059Z,92.35
2023-02-25T06:11:57.948Z,92.73
2023-02-25T06:14:27.395Z,92.48
2023-02-25T06:16:57.193Z,92.73
2023-02-25T06:19:29.617Z,92.50
2023-02-25T06:21:56.174Z,92.35
2023-02-25T06:24:32.557Z,92.17
2023-02-25T06:26:58.902Z,91.89
2023-02-25T06:29:27.595Z,91.91
2023-02-25T06:31:56.966Z,92.11
2023-02-25T06:34:23.668Z,92.11
2023-02-25T06:36:53.195Z,91.69
2023-02-25T06:39:19.557Z,92.33
2023-02-25T06:41:46.007Z,92.38
2023-02-25T06:44:15.853Z,92.31
2023-02-25T06:46:45.418Z,92.58
2023-02-25T06:49:25.075Z,93.25
2023-02-25T06:51:52.890Z,93.01
2023-02-25T06:54:22.206Z,93.36
2023-02-25T06:56:48.692Z,93.79
2023-02-25T06:59:15.060Z,94.03
2023-02-25T07:01:42.629Z,94.03
2023-02-25T07:04:15.260Z,93.78
2023-02-25T07:06:47.338Z,94.09
2023-02-25T07:09:16.534Z,96.23
2023-02-25T07:11:50.379Z,99.39
2023-02-25T07:14:19.985Z,100.00
2023-02-25T07:16:49.633Z,100.00
2023-02-25T07:19:19.069Z,100.00
2023-02-25T07:21:45.562Z,100.00
2023-02-25T07:24:41.532Z,100.00
2023-02-25T07:27:08.204Z,100.00
2023-02-25T07:29:37.779Z,100.00
2023-02-25T07:32:09.040Z,100.00
2023-02-25T07:34:38.596Z,100.00
2023-02-25T07:37:05.020Z,100.00
2023-02-25T07:39:31.411Z,100.00
2023-02-25T07:41:57.818Z,100.00
2023-02-25T07:44:24.292Z,100.00
2023-02-25T07:46:53.225Z,100.00
2023-02-25T07:49:19.567Z,100.00
2023-02-25T07:54:31.895Z,100.00
2023-02-25T07:57:01.525Z,100.00
2023-02-25T07:59:31.126Z,100.00
2023-02-25T08:01:57.607Z,100.00
2023-02-25T08:04:24.600Z,100.00
2023-02-25T08:06:59.069Z,100.00
2023-02-25T08:09:28.427Z,100.00
2023-02-25T08:12:00.561Z,100.00
2023-02-25T08:14:29.826Z,100.00
2023-02-25T08:16:57.748Z,100.00
2023-02-25T08:19:30.072Z,100.00
2023-02-25T08:21:56.453Z,100.00
2023-02-25T08:24:25.209Z,100.00
2023-02-25T08:26:53.951Z,100.00
2023-02-25T08:29:20.385Z,100.00
2023-02-25T08:31:51.491Z,100.00
2023-02-25T08:34:21.414Z,100.00
2023-02-25T08:36:54.422Z,100.00
2023-02-25T08:39:23.980Z,100.00
2023-02-25T08:41:52.342Z,100.00
2023-02-25T08:44:27.776Z,100.00
2023-02-25T08:46:59.866Z,100.00
2023-02-25T08:49:29.133Z,100.00
2023-02-25T08:57:20.518Z,99.30
2023-02-25T08:59:52.823Z,99.30
2023-02-25T09:02:19.170Z,94.48
2023-02-25T09:04:58.880Z,95.08
2023-02-25T09:07:30.758Z,93.89
2023-02-25T09:10:00.185Z,91.44
2023-02-25T09:12:32.532Z,91.02
2023-02-25T09:15:02.550Z,91.33
2023-02-25T09:17:31.759Z,91.21
2023-02-25T09:20:02.742Z,89.37
2023-02-25T09:22:29.199Z,88.75
2023-02-25T09:24:59.093Z,87.85
2023-02-25T09:27:28.813Z,86.10
2023-02-25T09:29:57.599Z,86.77
2023-02-25T09:32:24.395Z,86.59
2023-02-25T09:34:50.839Z,87.37
2023-02-25T09:37:26.966Z,84.58
2023-02-25T09:39:53.384Z,87.19
2023-02-25T09:42:26.623Z,85.33
2023-02-25T09:45:02.591Z,82.86
2023-02-25T09:47:58.395Z,84.57
2023-02-25T09:50:47.982Z,84.57
2023-02-25T09:53:20.282Z,84.43
2023-02-25T09:55:50.704Z,80.60
2023-02-25T09:58:43.997Z,82.52
2023-02-25T10:01:10.332Z,83.08
2023-02-25T10:03:54.957Z,80.44
2023-02-25T10:07:07.949Z,80.20
2023-02-25T10:12:46.017Z,80.05
2023-02-25T10:15:27.384Z,78.18
2023-02-25T10:18:15.657Z,77.01
2023-02-25T10:21:19.932Z,77.33
2023-02-25T10:24:40.736Z,77.34
2023-02-25T10:27:21.966Z,75.57
2023-02-25T10:30:00.325Z,76.85
2023-02-25T10:32:48.887Z,76.91
2023-02-25T10:35:29.014Z,77.16
2023-02-25T10:38:24.394Z,75.75
2023-02-25T10:41:11.291Z,76.14
2023-02-25T10:43:41.043Z,73.75
2023-02-25T10:46:23.040Z,72.05
2023-02-25T10:49:33.338Z,72.68
2023-02-25T10:52:17.943Z,70.30
2023-02-25T10:54:54.501Z,71.78
2023-02-25T10:57:34.037Z,69.17
2023-02-25T11:00:34.190Z,70.56
2023-02-25T11:03:01.950Z,70.21
2023-02-25T11:05:42.518Z,72.51
2023-02-25T11:08:34.373Z,77.49
2023-02-25T11:11:23.512Z,80.14
2023-02-25T11:14:02.676Z,82.30
2023-02-25T11:16:39.475Z,85.29
2023-02-25T11:19:27.746Z,90.02
2023-02-25T11:24:38.796Z,93.76
2023-02-25T11:27:23.139Z,93.65
2023-02-25T11:29:52.700Z,92.18
2023-02-25T11:32:22.999Z,91.81
2023-02-25T11:35:00.320Z,89.23
2023-02-25T11:37:43.032Z,84.73
2023-02-25T11:40:40.701Z,83.00
2023-02-25T11:43:07.429Z,84.53
2023-02-25T11:49:07.763Z,75.58
2023-02-25T11:51:48.216Z,70.64
2023-02-25T11:54:46.485Z,68.54
2023-02-25T11:57:35.572Z,66.92
2023-02-25T12:00:26.839Z,66.47
2023-02-25T12:06:28.825Z,61.13
2023-02-25T12:09:25.112Z,59.97
2023-02-25T12:12:39.422Z,60.73
2023-02-25T12:15:43.887Z,60.70
2023-02-25T12:18:46.632Z,59.64
2023-02-25T12:21:51.999Z,60.57
2023-02-25T12:24:40.316Z,60.40
2023-02-25T12:27:48.312Z,59.21
2023-02-25T12:30:26.923Z,58.57
2023-02-25T12:33:27.052Z,58.65
2023-02-25T12:36:08.601Z,55.32
2023-02-25T12:39:00.855Z,55.46
2023-02-25T12:42:04.866Z,57.17
2023-02-25T12:45:05.419Z,55.75
2023-02-25T12:48:13.322Z,56.60
2023-02-25T12:50:58.070Z,56.04
2023-02-25T12:53:48.451Z,54.40
2023-02-25T12:56:46.956Z,55.06
2023-02-25T12:59:44.404Z,52.85
2023-02-25T13:02:40.382Z,51.45
2023-02-25T13:05:15.619Z,52.05
2023-02-25T13:07:53.446Z,52.79
2023-02-25T13:10:39.314Z,54.07
2023-02-25T13:13:20.696Z,53.42
2023-02-25T13:16:21.192Z,52.05
2023-02-25T13:19:12.584Z,53.03
2023-02-25T13:22:13.192Z,53.27
2023-02-25T13:25:11.749Z,53.46
2023-02-25T13:28:17.539Z,54.05
2023-02-25T13:31:05.705Z,52.79
2023-02-25T13:33:58.812Z,54.02
2023-02-25T13:36:51.427Z,53.97
2023-02-25T13:40:05.461Z,53.56
2023-02-25T13:42:55.568Z,51.80
2023-02-25T13:46:03.937Z,53.47
2023-02-25T13:49:07.882Z,53.42
2023-02-25T13:52:12.443Z,53.38
2023-02-25T13:55:26.239Z,52.98
2023-02-25T13:58:31.162Z,53.36
2023-02-25T14:01:13.054Z,51.69
2023-02-25T14:04:07.362Z,51.26
2023-02-25T14:07:07.285Z,51.64
2023-02-25T14:10:04.659Z,51.43
2023-02-25T14:12:46.158Z,50.05
2023-02-25T14:16:00.122Z,51.30
2023-02-25T14:18:45.032Z,52.10
2023-02-25T14:21:48.594Z,51.23
2023-02-25T14:24:49.532Z,51.92
2023-02-25T14:27:37.319Z,52.10
2023-02-25T14:30:30.791Z,53.49
2023-02-25T14:33:23.613Z,53.62
2023-02-25T14:36:16.152Z,52.64
2023-02-25T14:39:03.689Z,52.41
2023-02-25T14:41:53.989Z,52.19
2023-02-25T14:44:34.219Z,52.18
2023-02-25T14:47:09.721Z,51.27
2023-02-25T14:50:18.511Z,51.25
2023-02-25T14:53:02.556Z,50.58
2023-02-25T14:56:19.761Z,52.13
2023-02-25T14:59:07.396Z,52.60
2023-02-25T15:02:26.654Z,52.31
2023-02-25T15:05:18.358Z,51.31
2023-02-25T15:08:08.350Z,50.22
2023-02-25T15:11:07.409Z,50.16
2023-02-25T15:14:04.258Z,50.49
2023-02-25T15:17:11.193Z,51.30
2023-02-25T15:19:56.477Z,50.55
2023-02-25T15:22:37.223Z,50.57
2023-02-25T15:25:47.926Z,50.72
2023-02-25T15:28:36.793Z,50.91
2023-02-25T15:31:13.861Z,51.15
2023-02-25T15:33:45.498Z,51.81
2023-02-25T15:36:21.660Z,52.05
2023-02-25T15:38:56.981Z,52.63
2023-02-25T15:41:29.180Z,52.77
2023-02-25T15:44:07.790Z,51.59
2023-02-25T15:46:41.543Z,50.97
2023-02-25T15:49:08.034Z,51.21
2023-02-25T15:51:54.582Z,50.11
2023-02-25T15:54:33.099Z,50.03
2023-02-25T15:57:01.328Z,49.96
2023-02-25T15:59:48.567Z,51.01
2023-02-25T16:02:39.144Z,52.00
2023-02-25T16:05:23.838Z,52.38
2023-02-25T16:08:07.021Z,53.49
2023-02-25T16:10:45.564Z,53.94
2023-02-25T16:13:19.159Z,54.37
2023-02-25T16:18:47.542Z,53.15
2023-02-25T16:21:26.423Z,52.41
2023-02-25T16:23:55.217Z,52.29
2023-02-25T16:26:39.030Z,52.62
2023-02-25T16:29:30.958Z,52.93
2023-02-25T16:32:34.382Z,54.08
2023-02-25T16:35:26.366Z,53.99
2023-02-25T16:38:17.254Z,53.89
2023-02-25T16:40:47.087Z,53.76
2023-02-25T16:43:21.795Z,54.18
2023-02-25T16:45:59.346Z,54.51
2023-02-25T16:48:57.584Z,54.12
2023-02-25T16:51:43.062Z,54.33
2023-02-25T16:54:15.317Z,54.63
2023-02-25T16:56:47.335Z,55.36
2023-02-25T16:59:25.740Z,55.48
2023-02-25T17:02:26.719Z,56.20
2023-02-25T17:04:56.912Z,56.42
2023-02-25T17:07:31.489Z,56.86
2023-02-25T17:10:04.152Z,56.93
2023-02-25T17:12:45.995Z,57.19
2023-02-25T17:15:34.758Z,57.25
2023-02-25T17:18:28.949Z,57.87
2023-02-25T17:21:20.323Z,57.91
2023-02-25T17:23:52.791Z,58.11
2023-02-25T17:26:21.294Z,58.33
2023-02-25T17:28:52.107Z,58.45
2023-02-25T17:31:26.716Z,58.99
2023-02-25T17:34:04.301Z,59.08
2023-02-25T17:36:51.428Z,59.08
2023-02-25T17:39:29.129Z,59.10
2023-02-25T17:41:56.361Z,59.75
2023-02-25T17:47:32.872Z,60.08
2023-02-25T17:50:25.855Z,60.30
2023-02-25T17:52:55.211Z,60.45
2023-02-25T17:55:34.060Z,60.79
2023-02-25T17:58:10.177Z,61.22
2023-02-25T18:00:39.404Z,61.32
2023-02-25T18:03:21.686Z,61.88
2023-02-25T18:05:59.674Z,61.73
2023-02-25T18:08:30.642Z,61.88
2023-02-25T18:11:26.241Z,62.22
2023-02-25T18:13:56.674Z,62.62
2023-02-25T18:16:30.090Z,63.14
2023-02-25T18:19:19.392Z,63.03
2023-02-25T18:21:49.536Z,63.15
2023-02-25T18:24:30.054Z,63.63
2023-02-25T18:27:23.086Z,63.57
2023-02-25T18:29:56.669Z,63.66
2023-02-25T18:32:23.063Z,64.24
2023-02-25T18:34:59.633Z,64.59
2023-02-25T18:37:31.541Z,64.52
2023-02-25T18:40:00.750Z,64.56
2023-02-25T18:42:29.681Z,64.94
2023-02-25T18:45:15.536Z,65.06
2023-02-25T18:47:45.484Z,65.30
2023-02-25T18:50:19.975Z,65.54
2023-02-25T18:52:46.825Z,65.20
2023-02-25T18:55:21.883Z,65.43
2023-02-25T18:57:49.057Z,65.91
2023-02-25T19:00:19.324Z,66.33
2023-02-25T19:02:54.860Z,66.06
2023-02-25T19:05:26.010Z,65.86
2023-02-25T19:07:56.180Z,66.82
2023-02-25T19:13:23.579Z,66.81
2023-02-25T19:15:53.765Z,67.09
2023-02-25T19:18:24.333Z,67.63
2023-02-25T19:21:02.713Z,67.90
2023-02-25T19:23:31.681Z,67.84
2023-02-25T19:26:05.121Z,68.48
2023-02-25T19:28:39.879Z,68.13
2023-02-25T19:31:07.103Z,68.73
2023-02-25T19:33:35.148Z,68.68
2023-02-25T19:36:07.814Z,68.76
2023-02-25T19:38:34.197Z,69.06
2023-02-25T19:41:05.623Z,69.20
2023-02-25T19:43:35.145Z,68.74
2023-02-25T19:46:08.088Z,69.16
2023-02-25T19:48:37.340Z,68.84
2023-02-25T19:51:10.441Z,68.75
2023-02-25T19:53:39.985Z,68.26
2023-02-25T19:56:08.146Z,68.46
2023-02-25T19:58:41.244Z,68.32
2023-02-25T20:01:11.394Z,68.47
2023-02-25T20:03:37.989Z,68.33
2023-02-25T20:06:11.368Z,68.31
2023-02-25T20:08:39.743Z,68.62
2023-02-25T20:11:10.719Z,68.56
2023-02-25T20:13:40.230Z,68.64
2023-02-25T20:16:09.759Z,68.70
2023-02-25T20:18:36.137Z,69.68
2023-02-25T20:21:06.506Z,69.20
2023-02-25T20:23:35.693Z,69.96
2023-02-25T20:26:18.486Z,70.04
2023-02-25T20:29:09.048Z,70.10
2023-02-25T20:31:38.956Z,70.17
2023-02-25T20:34:05.936Z,70.55
2023-02-25T20:37:04.285Z,71.17
2023-02-25T20:39:53.694Z,71.13
2023-02-25T20:42:24.777Z,71.44
2023-02-25T20:45:05.641Z,71.81
2023-02-25T20:47:45.646Z,72.12
2023-02-25T20:50:15.499Z,73.31
2023-02-25T20:55:47.798Z,73.38
2023-02-25T20:58:17.534Z,74.25
2023-02-25T21:00:47.025Z,74.31
2023-02-25T21:03:13.425Z,75.00
2023-02-25T21:05:40.337Z,75.27
2023-02-25T21:08:14.416Z,75.71
2023-02-25T21:10:43.973Z,76.20
2023-02-25T21:13:10.403Z,76.15
2023-02-25T21:15:39.620Z,76.62
2023-02-25T21:18:05.986Z,77.67
2023-02-25T21:20:32.594Z,77.13
2023-02-25T21:23:02.035Z,78.05
2023-02-25T21:25:32.027Z,78.11
2023-02-25T21:27:58.397Z,78.30
2023-02-25T21:30:34.705Z,78.80
2023-02-25T21:33:01.171Z,79.40
2023-02-25T21:35:31.107Z,80.07
2023-02-25T21:37:57.474Z,79.59
2023-02-25T21:40:23.885Z,79.95
2023-02-25T21:42:53.857Z,80.44
2023-02-25T21:45:23.280Z,80.64
2023-02-25T21:47:49.610Z,81.01
2023-02-25T21:50:19.612Z,80.94
2023-02-25T21:52:46.129Z,81.08
2023-02-25T21:55:12.526Z,81.47
2023-02-25T21:57:43.383Z,82.07
2023-02-25T22:00:11.249Z,81.68
2023-02-25T22:02:37.807Z,81.73
2023-02-25T22:05:07.726Z,81.79
2023-02-25T22:07:34.229Z,82.11
2023-02-25T22:10:01.933Z,82.10
2023-02-25T22:12:31.610Z,82.32
2023-02-25T22:14:58.054Z,82.21
2023-02-25T22:17:24.444Z,82.41
2023-02-25T22:19:54.370Z,82.35
2023-02-25T22:22:23.579Z,82.60
2023-02-25T22:24:49.937Z,82.99
2023-02-25T22:27:25.430Z,82.32
2023-02-25T22:29:51.805Z,82.60
2023-02-25T22:32:22.091Z,82.72
2023-02-25T22:34:51.436Z,82.72
2023-02-25T22:37:17.891Z,82.92
2023-02-25T22:39:46.374Z,82.46
2023-02-25T22:42:15.491Z,82.79
2023-02-25T22:44:49.220Z,83.02
2023-02-25T22:47:18.640Z,81.93
2023-02-25T22:49:45.007Z,81.31
2023-02-25T22:52:13.605Z,81.85
2023-02-25T22:54:42.794Z,80.92
2023-02-25T22:57:16.992Z,80.68
2023-02-25T22:59:43.329Z,80.27
2023-02-25T23:02:09.795Z,79.89
2023-02-25T23:04:36.727Z,79.97
2023-02-25T23:07:03.180Z,79.10
2023-02-25T23:09:29.623Z,79.17
2023-02-25T23:11:55.958Z,79.51
2023-02-25T23:14:26.272Z,78.72
2023-02-25T23:16:52.801Z,78.78
2023-02-25T23:19:19.621Z,78.35
2023-02-25T23:21:49.522Z,78.56
2023-02-25T23:24:19.442Z,78.30
2023-02-25T23:26:52.714Z,78.51
2023-02-25T23:29:21.787Z,78.09
2023-02-25T23:31:53.153Z,77.97
2023-02-25T23:34:23.934Z,77.70
2023-02-25T23:36:53.360Z,78.06
2023-02-25T23:39:20.047Z,77.86
2023-02-25T23:44:23.805Z,77.10
2023-02-25T23:46:50.261Z,75.93
2023-02-25T23:49:20.284Z,75.42
2023-02-25T23:51:52.804Z,74.30
2023-02-25T23:54:23.334Z,74.00
2023-02-25T23:56:55.619Z,74.08
2023-02-25T23:59:23.386Z,73.82
